sensor_id;sensor_type;location;lat;lon;timestamp;temperature;humidity
48946;DHT22;34999;50.940;3.998;2023-05-10T00:02:25;12.70;99.90
48946;DHT22;34999;50.940;3.998;2023-05-10T00:04:54;12.70;99.90
48946;DHT22;34999;50.940;3.998;2023-05-10T00:07:22;12.80;99.90
48946;DHT22;34999;50.940;3.998;2023-05-10T00:09:50;12.70;99.90
48946;DHT22;34999;50.940;3.998;2023-05-10T00:12:18;12.70;99.90
48946;DHT22;34999;50.940;3.998;2023-05-10T00:45:34;12.60;99.90
48946;DHT22;34999;50.940;3.998;2023-05-10T00:48:04;12.60;99.90
48946;DHT22;34999;50.940;3.998;2023-05-10T00:50:33;12.60;99.90
48946;DHT22;34999;50.940;3.998;2023-05-10T00:53:02;12.60;99.90
48946;DHT22;34999;50.940;3.998;2023-05-10T00:55:30;12.60;99.90
48946;DHT22;34999;50.940;3.998;2023-05-10T00:57:59;12.70;99.90
48946;DHT22;34999;50.940;3.998;2023-05-10T01:00:27;12.70;99.90
48946;DHT22;34999;50.940;3.998;2023-05-10T01:06:42;12.70;99.90
48946;DHT22;34999;50.940;3.998;2023-05-10T01:09:10;12.70;99.90
48946;DHT22;34999;50.940;3.998;2023-05-10T01:11:39;12.70;99.90
48946;DHT22;34999;50.940;3.998;2023-05-10T01:14:08;12.70;99.90
48946;DHT22;34999;50.940;3.998;2023-05-10T01:16:39;12.70;99.90
48946;DHT22;34999;50.940;3.998;2023-05-10T01:19:12;12.70;99.90
48946;DHT22;34999;50.940;3.998;2023-05-10T01:21:49;12.70;99.90
48946;DHT22;34999;50.940;3.998;2023-05-10T01:31:08;12.70;99.90
48946;DHT22;34999;50.940;3.998;2023-05-10T01:33:54;12.70;99.90
48946;DHT22;34999;50.940;3.998;2023-05-10T01:36:26;12.70;99.90
48946;DHT22;34999;50.940;3.998;2023-05-10T01:39:02;12.70;99.90
48946;DHT22;34999;50.940;3.998;2023-05-10T01:41:39;12.80;99.90
48946;DHT22;34999;50.940;3.998;2023-05-10T01:44:14;12.70;99.90
48946;DHT22;34999;50.940;3.998;2023-05-10T01:46:48;12.70;99.90
48946;DHT22;34999;50.940;3.998;2023-05-10T01:49:23;12.70;99.90
48946;DHT22;34999;50.940;3.998;2023-05-10T01:51:56;12.70;99.90
48946;DHT22;34999;50.940;3.998;2023-05-10T01:54:25;12.70;99.90
48946;DHT22;34999;50.940;3.998;2023-05-10T01:56:58;12.70;99.90
48946;DHT22;34999;50.940;3.998;2023-05-10T01:59:30;12.70;99.90
48946;DHT22;34999;50.940;3.998;2023-05-10T02:02:01;12.70;99.90
48946;DHT22;34999;50.940;3.998;2023-05-10T02:04:33;12.70;99.90
48946;DHT22;34999;50.940;3.998;2023-05-10T02:07:03;12.70;99.90
48946;DHT22;34999;50.940;3.998;2023-05-10T02:09:53;12.70;99.90
48946;DHT22;34999;50.940;3.998;2023-05-10T02:12:41;12.70;99.90
48946;DHT22;34999;50.940;3.998;2023-05-10T02:15:11;12.70;99.90
48946;DHT22;34999;50.940;3.998;2023-05-10T02:17:42;12.70;99.90
48946;DHT22;34999;50.940;3.998;2023-05-10T02:20:12;12.70;99.90
48946;DHT22;34999;50.940;3.998;2023-05-10T02:22:43;12.70;99.90
48946;DHT22;34999;50.940;3.998;2023-05-10T02:25:13;12.70;99.90
48946;DHT22;34999;50.940;3.998;2023-05-10T02:27:44;12.70;99.90
48946;DHT22;34999;50.940;3.998;2023-05-10T02:30:13;12.60;99.90
48946;DHT22;34999;50.940;3.998;2023-05-10T02:32:44;12.70;99.90
48946;DHT22;34999;50.940;3.998;2023-05-10T02:35:16;12.60;99.90
48946;DHT22;34999;50.940;3.998;2023-05-10T02:37:45;12.60;99.90
48946;DHT22;34999;50.940;3.998;2023-05-10T02:40:16;12.50;99.90
48946;DHT22;34999;50.940;3.998;2023-05-10T02:42:47;12.50;99.90
48946;DHT22;34999;50.940;3.998;2023-05-10T02:45:19;12.60;99.90
48946;DHT22;34999;50.940;3.998;2023-05-10T02:47:48;12.50;99.90
48946;DHT22;34999;50.940;3.998;2023-05-10T02:50:18;12.50;99.90
48946;DHT22;34999;50.940;3.998;2023-05-10T02:52:49;12.60;99.90
48946;DHT22;34999;50.940;3.998;2023-05-10T02:55:22;12.50;99.90
48946;DHT22;34999;50.940;3.998;2023-05-10T02:57:58;12.50;99.90
48946;DHT22;34999;50.940;3.998;2023-05-10T03:00:27;12.50;99.90
48946;DHT22;34999;50.940;3.998;2023-05-10T03:02:55;12.50;99.90
48946;DHT22;34999;50.940;3.998;2023-05-10T03:05:25;12.50;99.90
48946;DHT22;34999;50.940;3.998;2023-05-10T03:07:54;12.60;99.90
48946;DHT22;34999;50.940;3.998;2023-05-10T03:10:26;12.50;99.90
48946;DHT22;34999;50.940;3.998;2023-05-10T03:13:07;12.50;99.90
48946;DHT22;34999;50.940;3.998;2023-05-10T03:15:49;12.60;99.90
48946;DHT22;34999;50.940;3.998;2023-05-10T03:18:22;12.60;99.90
48946;DHT22;34999;50.940;3.998;2023-05-10T03:20:57;12.60;99.90
48946;DHT22;34999;50.940;3.998;2023-05-10T03:23:29;12.60;99.90
48946;DHT22;34999;50.940;3.998;2023-05-10T03:25:58;12.60;99.90
48946;DHT22;34999;50.940;3.998;2023-05-10T03:28:27;12.60;99.90
48946;DHT22;34999;50.940;3.998;2023-05-10T03:30:56;12.60;99.90
48946;DHT22;34999;50.940;3.998;2023-05-10T03:33:24;12.60;99.90
48946;DHT22;34999;50.940;3.998;2023-05-10T03:35:54;12.60;99.90
48946;DHT22;34999;50.940;3.998;2023-05-10T03:38:22;12.60;99.90
48946;DHT22;34999;50.940;3.998;2023-05-10T03:40:50;12.60;99.90
48946;DHT22;34999;50.940;3.998;2023-05-10T03:43:19;12.60;99.90
48946;DHT22;34999;50.940;3.998;2023-05-10T03:45:47;12.60;99.90
48946;DHT22;34999;50.940;3.998;2023-05-10T03:48:15;12.60;99.90
48946;DHT22;34999;50.940;3.998;2023-05-10T03:50:43;12.60;99.90
48946;DHT22;34999;50.940;3.998;2023-05-10T03:53:12;12.70;99.90
48946;DHT22;34999;50.940;3.998;2023-05-10T03:55:41;12.60;99.90
48946;DHT22;34999;50.940;3.998;2023-05-10T03:58:11;12.60;99.90
48946;DHT22;34999;50.940;3.998;2023-05-10T04:00:41;12.70;99.90
48946;DHT22;34999;50.940;3.998;2023-05-10T04:03:12;12.60;99.90
48946;DHT22;34999;50.940;3.998;2023-05-10T04:05:40;12.70;99.90
48946;DHT22;34999;50.940;3.998;2023-05-10T04:08:09;12.70;99.90
48946;DHT22;34999;50.940;3.998;2023-05-10T04:10:38;12.70;99.90
48946;DHT22;34999;50.940;3.998;2023-05-10T04:13:07;12.70;99.90
48946;DHT22;34999;50.940;3.998;2023-05-10T04:15:35;12.70;99.90
48946;DHT22;34999;50.940;3.998;2023-05-10T04:18:03;12.60;99.90
48946;DHT22;34999;50.940;3.998;2023-05-10T04:20:34;12.60;99.90
48946;DHT22;34999;50.940;3.998;2023-05-10T04:23:02;12.70;99.90
48946;DHT22;34999;50.940;3.998;2023-05-10T04:25:33;12.60;99.90
48946;DHT22;34999;50.940;3.998;2023-05-10T04:28:03;12.60;99.90
48946;DHT22;34999;50.940;3.998;2023-05-10T04:30:32;12.60;99.90
48946;DHT22;34999;50.940;3.998;2023-05-10T04:33:00;12.60;99.90
48946;DHT22;34999;50.940;3.998;2023-05-10T04:35:28;12.60;99.90
48946;DHT22;34999;50.940;3.998;2023-05-10T04:37:57;12.60;99.90
48946;DHT22;34999;50.940;3.998;2023-05-10T04:40:26;12.60;99.90
48946;DHT22;34999;50.940;3.998;2023-05-10T04:42:54;12.60;99.90
48946;DHT22;34999;50.940;3.998;2023-05-10T04:45:23;12.60;99.90
48946;DHT22;34999;50.940;3.998;2023-05-10T04:47:51;12.60;99.90
48946;DHT22;34999;50.940;3.998;2023-05-10T04:50:20;12.60;99.90
48946;DHT22;34999;50.940;3.998;2023-05-10T04:52:50;12.60;99.90
48946;DHT22;34999;50.940;3.998;2023-05-10T04:55:19;12.70;99.90
48946;DHT22;34999;50.940;3.998;2023-05-10T04:57:47;12.70;99.90
48946;DHT22;34999;50.940;3.998;2023-05-10T05:00:16;12.70;99.90
48946;DHT22;34999;50.940;3.998;2023-05-10T05:02:46;12.70;99.90
48946;DHT22;34999;50.940;3.998;2023-05-10T05:05:14;12.70;99.90
48946;DHT22;34999;50.940;3.998;2023-05-10T05:07:42;12.70;99.90
48946;DHT22;34999;50.940;3.998;2023-05-10T05:10:10;12.80;99.90
48946;DHT22;34999;50.940;3.998;2023-05-10T05:12:39;12.70;99.90
48946;DHT22;34999;50.940;3.998;2023-05-10T05:15:08;12.70;99.90
48946;DHT22;34999;50.940;3.998;2023-05-10T05:17:37;12.70;99.90
48946;DHT22;34999;50.940;3.998;2023-05-10T05:20:08;12.70;99.90
48946;DHT22;34999;50.940;3.998;2023-05-10T05:22:37;12.70;99.90
48946;DHT22;34999;50.940;3.998;2023-05-10T05:25:06;12.70;99.90
48946;DHT22;34999;50.940;3.998;2023-05-10T05:27:34;12.70;99.90
48946;DHT22;34999;50.940;3.998;2023-05-10T05:30:03;12.70;99.90
48946;DHT22;34999;50.940;3.998;2023-05-10T05:32:31;12.70;99.90
48946;DHT22;34999;50.940;3.998;2023-05-10T05:35:00;12.60;99.90
48946;DHT22;34999;50.940;3.998;2023-05-10T05:37:29;12.60;99.90
48946;DHT22;34999;50.940;3.998;2023-05-10T05:40:00;12.60;99.90
48946;DHT22;34999;50.940;3.998;2023-05-10T05:42:29;12.60;99.90
48946;DHT22;34999;50.940;3.998;2023-05-10T05:44:58;12.60;99.90
48946;DHT22;34999;50.940;3.998;2023-05-10T05:47:26;12.60;99.90
48946;DHT22;34999;50.940;3.998;2023-05-10T05:49:55;12.50;99.90
48946;DHT22;34999;50.940;3.998;2023-05-10T05:52:23;12.50;99.90
48946;DHT22;34999;50.940;3.998;2023-05-10T05:54:52;12.50;99.90
48946;DHT22;34999;50.940;3.998;2023-05-10T05:57:21;12.50;99.90
48946;DHT22;34999;50.940;3.998;2023-05-10T05:59:49;12.50;99.90
48946;DHT22;34999;50.940;3.998;2023-05-10T06:02:17;12.50;99.90
48946;DHT22;34999;50.940;3.998;2023-05-10T06:04:46;12.50;99.90
48946;DHT22;34999;50.940;3.998;2023-05-10T06:07:14;12.40;99.90
48946;DHT22;34999;50.940;3.998;2023-05-10T06:09:42;12.50;99.90
48946;DHT22;34999;50.940;3.998;2023-05-10T06:12:12;12.50;99.90
48946;DHT22;34999;50.940;3.998;2023-05-10T06:14:41;12.50;99.90
48946;DHT22;34999;50.940;3.998;2023-05-10T06:17:10;12.50;99.90
48946;DHT22;34999;50.940;3.998;2023-05-10T06:19:39;12.50;99.90
48946;DHT22;34999;50.940;3.998;2023-05-10T06:22:07;12.50;99.90
48946;DHT22;34999;50.940;3.998;2023-05-10T06:24:35;12.50;99.90
48946;DHT22;34999;50.940;3.998;2023-05-10T06:27:03;12.50;99.90
48946;DHT22;34999;50.940;3.998;2023-05-10T06:29:33;12.50;99.90
48946;DHT22;34999;50.940;3.998;2023-05-10T06:32:01;12.50;99.90
48946;DHT22;34999;50.940;3.998;2023-05-10T06:34:30;12.50;99.90
48946;DHT22;34999;50.940;3.998;2023-05-10T06:36:58;12.60;99.90
48946;DHT22;34999;50.940;3.998;2023-05-10T06:39:26;12.60;99.90
48946;DHT22;34999;50.940;3.998;2023-05-10T06:41:56;12.60;99.90
48946;DHT22;34999;50.940;3.998;2023-05-10T06:44:24;12.60;99.90
48946;DHT22;34999;50.940;3.998;2023-05-10T06:46:53;12.70;99.90
48946;DHT22;34999;50.940;3.998;2023-05-10T06:49:22;12.70;99.90
48946;DHT22;34999;50.940;3.998;2023-05-10T06:51:51;12.70;99.90
48946;DHT22;34999;50.940;3.998;2023-05-10T06:54:19;12.70;99.90
48946;DHT22;34999;50.940;3.998;2023-05-10T06:56:47;12.70;99.90
48946;DHT22;34999;50.940;3.998;2023-05-10T06:59:16;12.70;99.90
48946;DHT22;34999;50.940;3.998;2023-05-10T07:01:46;12.70;99.90
48946;DHT22;34999;50.940;3.998;2023-05-10T07:04:15;12.60;99.90
48946;DHT22;34999;50.940;3.998;2023-05-10T07:06:44;12.60;99.90
48946;DHT22;34999;50.940;3.998;2023-05-10T07:09:13;12.60;99.90
48946;DHT22;34999;50.940;3.998;2023-05-10T07:11:41;12.60;99.90
48946;DHT22;34999;50.940;3.998;2023-05-10T07:14:10;12.70;99.90
48946;DHT22;34999;50.940;3.998;2023-05-10T07:16:38;12.70;99.90
48946;DHT22;34999;50.940;3.998;2023-05-10T07:19:06;12.70;99.90
48946;DHT22;34999;50.940;3.998;2023-05-10T07:21:36;12.80;99.90
48946;DHT22;34999;50.940;3.998;2023-05-10T07:24:07;12.80;99.90
48946;DHT22;34999;50.940;3.998;2023-05-10T07:26:35;12.80;99.90
48946;DHT22;34999;50.940;3.998;2023-05-10T07:29:03;12.90;99.90
48946;DHT22;34999;50.940;3.998;2023-05-10T07:31:32;12.80;99.90
48946;DHT22;34999;50.940;3.998;2023-05-10T07:34:00;12.90;99.90
48946;DHT22;34999;50.940;3.998;2023-05-10T07:36:29;13.00;99.90
48946;DHT22;34999;50.940;3.998;2023-05-10T07:38:59;13.10;99.90
48946;DHT22;34999;50.940;3.998;2023-05-10T07:41:27;13.10;99.90
48946;DHT22;34999;50.940;3.998;2023-05-10T07:43:55;13.20;99.90
48946;DHT22;34999;50.940;3.998;2023-05-10T07:46:23;13.20;99.90
48946;DHT22;34999;50.940;3.998;2023-05-10T07:48:52;13.30;99.90
48946;DHT22;34999;50.940;3.998;2023-05-10T07:51:20;13.40;99.90
48946;DHT22;34999;50.940;3.998;2023-05-10T07:53:49;13.40;99.90
48946;DHT22;34999;50.940;3.998;2023-05-10T07:56:23;13.40;99.90
48946;DHT22;34999;50.940;3.998;2023-05-10T07:58:55;13.40;99.90
48946;DHT22;34999;50.940;3.998;2023-05-10T08:01:23;13.40;99.90
48946;DHT22;34999;50.940;3.998;2023-05-10T08:03:51;13.30;99.90
48946;DHT22;34999;50.940;3.998;2023-05-10T08:06:20;13.30;99.90
48946;DHT22;34999;50.940;3.998;2023-05-10T08:08:49;13.40;99.90
48946;DHT22;34999;50.940;3.998;2023-05-10T08:11:19;13.40;99.90
48946;DHT22;34999;50.940;3.998;2023-05-10T08:13:50;13.50;99.90
48946;DHT22;34999;50.940;3.998;2023-05-10T08:16:18;13.50;99.90
48946;DHT22;34999;50.940;3.998;2023-05-10T08:18:47;13.50;99.90
48946;DHT22;34999;50.940;3.998;2023-05-10T08:21:16;13.60;99.90
48946;DHT22;34999;50.940;3.998;2023-05-10T08:23:47;13.70;99.90
48946;DHT22;34999;50.940;3.998;2023-05-10T08:26:15;13.70;99.90
48946;DHT22;34999;50.940;3.998;2023-05-10T08:28:44;13.70;99.90
48946;DHT22;34999;50.940;3.998;2023-05-10T08:31:15;13.60;99.90
48946;DHT22;34999;50.940;3.998;2023-05-10T08:33:43;13.60;99.90
48946;DHT22;34999;50.940;3.998;2023-05-10T08:36:12;13.60;99.90
48946;DHT22;34999;50.940;3.998;2023-05-10T08:38:46;13.60;99.90
48946;DHT22;34999;50.940;3.998;2023-05-10T08:41:17;13.70;99.90
48946;DHT22;34999;50.940;3.998;2023-05-10T08:43:48;13.60;99.90
48946;DHT22;34999;50.940;3.998;2023-05-10T08:46:19;13.60;99.90
48946;DHT22;34999;50.940;3.998;2023-05-10T08:48:49;13.60;99.90
48946;DHT22;34999;50.940;3.998;2023-05-10T08:51:20;13.60;99.90
48946;DHT22;34999;50.940;3.998;2023-05-10T08:53:50;13.60;99.90
48946;DHT22;34999;50.940;3.998;2023-05-10T08:56:19;13.50;99.90
48946;DHT22;34999;50.940;3.998;2023-05-10T08:58:48;13.50;99.90
48946;DHT22;34999;50.940;3.998;2023-05-10T09:01:18;13.60;99.90
48946;DHT22;34999;50.940;3.998;2023-05-10T09:03:48;13.60;99.90
48946;DHT22;34999;50.940;3.998;2023-05-10T09:06:17;13.60;99.90
48946;DHT22;34999;50.940;3.998;2023-05-10T09:08:46;13.60;99.90
48946;DHT22;34999;50.940;3.998;2023-05-10T09:11:14;13.50;99.90
48946;DHT22;34999;50.940;3.998;2023-05-10T09:13:42;13.60;99.90
48946;DHT22;34999;50.940;3.998;2023-05-10T09:16:11;13.60;99.90
48946;DHT22;34999;50.940;3.998;2023-05-10T09:18:47;13.50;99.90
48946;DHT22;34999;50.940;3.998;2023-05-10T09:21:16;13.50;99.90
48946;DHT22;34999;50.940;3.998;2023-05-10T09:23:45;13.40;99.90
48946;DHT22;34999;50.940;3.998;2023-05-10T09:26:14;13.40;99.90
48946;DHT22;34999;50.940;3.998;2023-05-10T09:28:53;13.40;99.90
48946;DHT22;34999;50.940;3.998;2023-05-10T09:31:22;13.50;99.90
48946;DHT22;34999;50.940;3.998;2023-05-10T09:33:53;13.60;99.90
48946;DHT22;34999;50.940;3.998;2023-05-10T09:36:21;13.70;99.90
48946;DHT22;34999;50.940;3.998;2023-05-10T09:38:51;13.90;99.90
48946;DHT22;34999;50.940;3.998;2023-05-10T09:41:21;14.10;99.90
48946;DHT22;34999;50.940;3.998;2023-05-10T09:43:50;14.20;99.90
48946;DHT22;34999;50.940;3.998;2023-05-10T09:46:23;14.30;99.90
48946;DHT22;34999;50.940;3.998;2023-05-10T09:48:53;14.40;99.90
48946;DHT22;34999;50.940;3.998;2023-05-10T09:51:21;14.40;99.90
48946;DHT22;34999;50.940;3.998;2023-05-10T09:54:09;14.50;99.90
48946;DHT22;34999;50.940;3.998;2023-05-10T09:56:37;14.50;99.90
48946;DHT22;34999;50.940;3.998;2023-05-10T09:59:10;14.50;99.90
48946;DHT22;34999;50.940;3.998;2023-05-10T10:01:39;14.50;99.90
48946;DHT22;34999;50.940;3.998;2023-05-10T10:04:10;14.50;99.90
48946;DHT22;34999;50.940;3.998;2023-05-10T10:06:40;14.40;99.90
48946;DHT22;34999;50.940;3.998;2023-05-10T10:09:08;14.30;99.90
48946;DHT22;34999;50.940;3.998;2023-05-10T10:11:38;14.50;99.90
48946;DHT22;34999;50.940;3.998;2023-05-10T10:14:08;14.40;99.90
48946;DHT22;34999;50.940;3.998;2023-05-10T10:16:36;14.40;99.90
48946;DHT22;34999;50.940;3.998;2023-05-10T10:19:23;14.40;99.90
48946;DHT22;34999;50.940;3.998;2023-05-10T10:21:51;14.50;99.90
48946;DHT22;34999;50.940;3.998;2023-05-10T10:24:19;14.50;99.90
48946;DHT22;34999;50.940;3.998;2023-05-10T10:26:49;14.50;99.90
48946;DHT22;34999;50.940;3.998;2023-05-10T10:29:24;14.40;99.90
48946;DHT22;34999;50.940;3.998;2023-05-10T10:32:00;14.50;99.90
48946;DHT22;34999;50.940;3.998;2023-05-10T10:34:33;14.50;99.90
48946;DHT22;34999;50.940;3.998;2023-05-10T10:37:05;14.60;99.90
48946;DHT22;34999;50.940;3.998;2023-05-10T10:39:33;14.60;99.90
48946;DHT22;34999;50.940;3.998;2023-05-10T10:42:04;14.60;99.90
48946;DHT22;34999;50.940;3.998;2023-05-10T10:44:38;14.60;99.90
48946;DHT22;34999;50.940;3.998;2023-05-10T10:47:21;14.50;99.90
48946;DHT22;34999;50.940;3.998;2023-05-10T10:50:07;14.60;99.90
48946;DHT22;34999;50.940;3.998;2023-05-10T10:52:38;14.70;99.90
48946;DHT22;34999;50.940;3.998;2023-05-10T10:55:08;14.80;99.90
48946;DHT22;34999;50.940;3.998;2023-05-10T10:57:50;14.90;99.90
48946;DHT22;34999;50.940;3.998;2023-05-10T11:00:23;14.90;99.90
48946;DHT22;34999;50.940;3.998;2023-05-10T11:02:54;14.90;99.90
48946;DHT22;34999;50.940;3.998;2023-05-10T11:05:41;15.00;99.90
48946;DHT22;34999;50.940;3.998;2023-05-10T11:08:15;15.10;99.90
48946;DHT22;34999;50.940;3.998;2023-05-10T11:13:41;15.20;99.90
48946;DHT22;34999;50.940;3.998;2023-05-10T11:16:12;15.30;99.90
48946;DHT22;34999;50.940;3.998;2023-05-10T11:18:41;15.40;99.90
48946;DHT22;34999;50.940;3.998;2023-05-10T11:21:23;15.40;99.90
48946;DHT22;34999;50.940;3.998;2023-05-10T11:23:55;15.40;99.90
48946;DHT22;34999;50.940;3.998;2023-05-10T11:26:25;15.50;99.90
48946;DHT22;34999;50.940;3.998;2023-05-10T11:28:58;15.50;99.90
48946;DHT22;34999;50.940;3.998;2023-05-10T11:31:27;15.50;99.90
48946;DHT22;34999;50.940;3.998;2023-05-10T11:33:57;15.70;99.90
48946;DHT22;34999;50.940;3.998;2023-05-10T11:36:32;15.80;99.90
48946;DHT22;34999;50.940;3.998;2023-05-10T11:39:00;15.80;99.90
48946;DHT22;34999;50.940;3.998;2023-05-10T11:41:30;15.80;99.90
48946;DHT22;34999;50.940;3.998;2023-05-10T11:43:58;15.80;99.90
48946;DHT22;34999;50.940;3.998;2023-05-10T11:46:28;15.90;99.90
48946;DHT22;34999;50.940;3.998;2023-05-10T11:48:59;16.10;99.90
48946;DHT22;34999;50.940;3.998;2023-05-10T11:51:34;16.20;99.90
48946;DHT22;34999;50.940;3.998;2023-05-10T11:54:06;16.20;99.90
48946;DHT22;34999;50.940;3.998;2023-05-10T11:56:35;16.20;99.90
48946;DHT22;34999;50.940;3.998;2023-05-10T11:59:04;15.90;99.90
48946;DHT22;34999;50.940;3.998;2023-05-10T12:01:33;15.80;99.90
48946;DHT22;34999;50.940;3.998;2023-05-10T12:04:02;15.80;99.90
48946;DHT22;34999;50.940;3.998;2023-05-10T12:06:32;15.80;99.90
48946;DHT22;34999;50.940;3.998;2023-05-10T12:09:07;15.70;99.90
48946;DHT22;34999;50.940;3.998;2023-05-10T12:11:38;15.80;99.90
48946;DHT22;34999;50.940;3.998;2023-05-10T12:14:10;15.70;99.90
48946;DHT22;34999;50.940;3.998;2023-05-10T12:16:38;15.60;99.90
48946;DHT22;34999;50.940;3.998;2023-05-10T12:19:09;15.50;99.90
48946;DHT22;34999;50.940;3.998;2023-05-10T12:21:40;15.60;99.90
48946;DHT22;34999;50.940;3.998;2023-05-10T12:24:09;15.70;99.90
48946;DHT22;34999;50.940;3.998;2023-05-10T12:26:38;15.70;99.90
48946;DHT22;34999;50.940;3.998;2023-05-10T12:29:14;15.70;99.90
48946;DHT22;34999;50.940;3.998;2023-05-10T12:31:52;15.80;99.90
48946;DHT22;34999;50.940;3.998;2023-05-10T12:34:30;15.70;99.90
48946;DHT22;34999;50.940;3.998;2023-05-10T12:36:59;15.60;99.90
48946;DHT22;34999;50.940;3.998;2023-05-10T12:39:39;15.60;99.90
48946;DHT22;34999;50.940;3.998;2023-05-10T12:42:08;15.50;99.90
48946;DHT22;34999;50.940;3.998;2023-05-10T12:44:36;15.60;99.90
48946;DHT22;34999;50.940;3.998;2023-05-10T12:47:04;15.70;99.90
48946;DHT22;34999;50.940;3.998;2023-05-10T12:49:34;15.70;99.90
48946;DHT22;34999;50.940;3.998;2023-05-10T12:52:04;15.90;99.90
48946;DHT22;34999;50.940;3.998;2023-05-10T12:54:32;15.80;99.90
48946;DHT22;34999;50.940;3.998;2023-05-10T12:57:02;15.70;99.90
48946;DHT22;34999;50.940;3.998;2023-05-10T12:59:30;15.80;99.90
48946;DHT22;34999;50.940;3.998;2023-05-10T13:02:01;15.80;99.90
48946;DHT22;34999;50.940;3.998;2023-05-10T13:04:30;15.80;99.90
48946;DHT22;34999;50.940;3.998;2023-05-10T13:06:58;16.00;99.90
48946;DHT22;34999;50.940;3.998;2023-05-10T13:09:27;15.80;99.90
48946;DHT22;34999;50.940;3.998;2023-05-10T13:11:56;15.90;99.90
48946;DHT22;34999;50.940;3.998;2023-05-10T13:14:26;15.90;99.90
48946;DHT22;34999;50.940;3.998;2023-05-10T13:16:54;16.10;99.90
48946;DHT22;34999;50.940;3.998;2023-05-10T13:19:23;16.20;99.90
48946;DHT22;34999;50.940;3.998;2023-05-10T13:21:51;16.20;99.90
48946;DHT22;34999;50.940;3.998;2023-05-10T13:24:19;16.20;99.90
48946;DHT22;34999;50.940;3.998;2023-05-10T13:26:48;16.40;99.90
48946;DHT22;34999;50.940;3.998;2023-05-10T13:29:16;16.40;99.90
48946;DHT22;34999;50.940;3.998;2023-05-10T13:31:46;16.50;99.90
48946;DHT22;34999;50.940;3.998;2023-05-10T13:34:15;16.70;99.90
48946;DHT22;34999;50.940;3.998;2023-05-10T13:36:43;16.80;99.90
48946;DHT22;34999;50.940;3.998;2023-05-10T13:39:11;16.80;99.90
48946;DHT22;34999;50.940;3.998;2023-05-10T13:41:40;16.70;99.90
48946;DHT22;34999;50.940;3.998;2023-05-10T13:44:11;16.70;99.90
48946;DHT22;34999;50.940;3.998;2023-05-10T13:46:39;16.50;99.90
48946;DHT22;34999;50.940;3.998;2023-05-10T13:49:10;16.40;99.90
48946;DHT22;34999;50.940;3.998;2023-05-10T13:51:38;16.30;99.90
48946;DHT22;34999;50.940;3.998;2023-05-10T13:54:06;16.00;99.90
48946;DHT22;34999;50.940;3.998;2023-05-10T13:56:36;15.80;99.90
48946;DHT22;34999;50.940;3.998;2023-05-10T13:59:04;15.60;99.90
48946;DHT22;34999;50.940;3.998;2023-05-10T14:01:33;15.40;99.90
48946;DHT22;34999;50.940;3.998;2023-05-10T14:04:01;15.30;99.90
48946;DHT22;34999;50.940;3.998;2023-05-10T14:06:31;15.20;99.90
48946;DHT22;34999;50.940;3.998;2023-05-10T14:09:03;15.20;99.90
48946;DHT22;34999;50.940;3.998;2023-05-10T14:11:31;15.20;99.90
48946;DHT22;34999;50.940;3.998;2023-05-10T14:13:59;15.20;99.90
48946;DHT22;34999;50.940;3.998;2023-05-10T14:16:28;15.10;99.90
48946;DHT22;34999;50.940;3.998;2023-05-10T14:18:57;15.00;99.90
48946;DHT22;34999;50.940;3.998;2023-05-10T14:21:25;14.80;99.90
48946;DHT22;34999;50.940;3.998;2023-05-10T14:23:56;14.70;99.90
48946;DHT22;34999;50.940;3.998;2023-05-10T14:26:27;14.60;99.90
48946;DHT22;34999;50.940;3.998;2023-05-10T14:28:55;14.40;99.90
48946;DHT22;34999;50.940;3.998;2023-05-10T14:31:23;14.20;99.90
48946;DHT22;34999;50.940;3.998;2023-05-10T14:33:52;14.10;99.90
48946;DHT22;34999;50.940;3.998;2023-05-10T14:36:21;14.00;99.90
48946;DHT22;34999;50.940;3.998;2023-05-10T14:38:49;14.00;99.90
48946;DHT22;34999;50.940;3.998;2023-05-10T14:41:19;13.90;99.90
48946;DHT22;34999;50.940;3.998;2023-05-10T14:43:47;13.90;99.90
48946;DHT22;34999;50.940;3.998;2023-05-10T14:46:17;13.90;99.90
48946;DHT22;34999;50.940;3.998;2023-05-10T14:48:46;13.90;99.90
48946;DHT22;34999;50.940;3.998;2023-05-10T14:51:14;13.80;99.90
48946;DHT22;34999;50.940;3.998;2023-05-10T14:53:42;13.70;99.90
48946;DHT22;34999;50.940;3.998;2023-05-10T14:56:11;13.70;99.90
48946;DHT22;34999;50.940;3.998;2023-05-10T14:58:42;13.70;99.90
48946;DHT22;34999;50.940;3.998;2023-05-10T15:01:11;13.70;99.90
48946;DHT22;34999;50.940;3.998;2023-05-10T15:03:40;13.70;99.90
48946;DHT22;34999;50.940;3.998;2023-05-10T15:06:09;13.80;99.90
48946;DHT22;34999;50.940;3.998;2023-05-10T15:08:37;13.80;99.90
48946;DHT22;34999;50.940;3.998;2023-05-10T15:11:05;13.80;99.90
48946;DHT22;34999;50.940;3.998;2023-05-10T15:13:33;13.90;99.90
48946;DHT22;34999;50.940;3.998;2023-05-10T15:16:03;13.90;99.90
48946;DHT22;34999;50.940;3.998;2023-05-10T15:18:32;13.80;99.90
48946;DHT22;34999;50.940;3.998;2023-05-10T15:21:01;13.90;99.90
48946;DHT22;34999;50.940;3.998;2023-05-10T15:23:29;13.80;99.90
48946;DHT22;34999;50.940;3.998;2023-05-10T15:25:57;13.80;99.90
48946;DHT22;34999;50.940;3.998;2023-05-10T15:28:26;13.80;99.90
48946;DHT22;34999;50.940;3.998;2023-05-10T15:30:55;13.80;99.90
48946;DHT22;34999;50.940;3.998;2023-05-10T15:33:24;13.80;99.90
48946;DHT22;34999;50.940;3.998;2023-05-10T15:35:54;13.80;99.90
48946;DHT22;34999;50.940;3.998;2023-05-10T15:38:22;13.80;99.90
48946;DHT22;34999;50.940;3.998;2023-05-10T15:40:50;13.90;99.90
48946;DHT22;34999;50.940;3.998;2023-05-10T15:43:21;13.90;99.90
48946;DHT22;34999;50.940;3.998;2023-05-10T15:45:49;13.80;99.90
48946;DHT22;34999;50.940;3.998;2023-05-10T15:48:18;13.90;99.90
48946;DHT22;34999;50.940;3.998;2023-05-10T15:50:47;13.90;99.90
48946;DHT22;34999;50.940;3.998;2023-05-10T15:53:16;13.90;99.90
48946;DHT22;34999;50.940;3.998;2023-05-10T15:55:44;13.90;99.90
48946;DHT22;34999;50.940;3.998;2023-05-10T15:58:12;14.00;99.90
48946;DHT22;34999;50.940;3.998;2023-05-10T16:00:40;14.00;99.90
48946;DHT22;34999;50.940;3.998;2023-05-10T16:03:09;14.10;99.90
48946;DHT22;34999;50.940;3.998;2023-05-10T16:05:37;14.10;99.90
48946;DHT22;34999;50.940;3.998;2023-05-10T16:08:07;14.20;99.90
48946;DHT22;34999;50.940;3.998;2023-05-10T16:10:35;14.20;99.90
48946;DHT22;34999;50.940;3.998;2023-05-10T16:13:04;14.10;99.90
48946;DHT22;34999;50.940;3.998;2023-05-10T16:15:32;14.10;99.90
48946;DHT22;34999;50.940;3.998;2023-05-10T16:18:01;14.10;99.90
48946;DHT22;34999;50.940;3.998;2023-05-10T16:20:30;14.10;99.90
48946;DHT22;34999;50.940;3.998;2023-05-10T16:23:02;14.10;99.90
48946;DHT22;34999;50.940;3.998;2023-05-10T16:25:32;14.20;99.90
48946;DHT22;34999;50.940;3.998;2023-05-10T16:28:01;14.10;99.90
48946;DHT22;34999;50.940;3.998;2023-05-10T16:30:29;14.10;99.90
48946;DHT22;34999;50.940;3.998;2023-05-10T16:32:59;14.00;99.90